sensor_id;sensor_type;location;lat;lon;timestamp;P1;durP1;ratioP1;P2;durP2;ratioP2
45316;SDS011;31053;55.870;37.592;2023-09-19T00:01:00;12.82;;;6.60;;
45316;SDS011;31053;55.870;37.592;2023-09-19T00:04:08;19.13;;;7.38;;
45316;SDS011;31053;55.870;37.592;2023-09-19T00:07:14;10.73;;;5.75;;
45316;SDS011;31053;55.870;37.592;2023-09-19T00:10:20;10.00;;;5.35;;
45316;SDS011;31053;55.870;37.592;2023-09-19T00:13:33;10.52;;;6.10;;
45316;SDS011;31053;55.870;37.592;2023-09-19T00:16:40;9.98;;;5.70;;
45316;SDS011;31053;55.870;37.592;2023-09-19T00:19:45;11.00;;;5.10;;
45316;SDS011;31053;55.870;37.592;2023-09-19T00:22:50;8.32;;;5.57;;
45316;SDS011;31053;55.870;37.592;2023-09-19T00:25:58;8.55;;;5.20;;
45316;SDS011;31053;55.870;37.592;2023-09-19T00:29:04;8.23;;;5.20;;
45316;SDS011;31053;55.870;37.592;2023-09-19T00:32:13;10.38;;;5.90;;
45316;SDS011;31053;55.870;37.592;2023-09-19T00:35:18;9.52;;;5.00;;
45316;SDS011;31053;55.870;37.592;2023-09-19T00:38:28;10.45;;;5.38;;
45316;SDS011;31053;55.870;37.592;2023-09-19T00:41:33;8.45;;;4.85;;
45316;SDS011;31053;55.870;37.592;2023-09-19T00:44:40;8.68;;;4.82;;
45316;SDS011;31053;55.870;37.592;2023-09-19T00:47:49;7.43;;;4.43;;
45316;SDS011;31053;55.870;37.592;2023-09-19T00:50:54;7.65;;;4.63;;
45316;SDS011;31053;55.870;37.592;2023-09-19T00:53:59;10.30;;;5.57;;
45316;SDS011;31053;55.870;37.592;2023-09-19T00:57:04;14.63;;;5.53;;
45316;SDS011;31053;55.870;37.592;2023-09-19T01:00:10;8.00;;;5.32;;
45316;SDS011;31053;55.870;37.592;2023-09-19T01:03:19;12.23;;;3.65;;
45316;SDS011;31053;55.870;37.592;2023-09-19T01:06:24;5.90;;;4.00;;
45316;SDS011;31053;55.870;37.592;2023-09-19T01:17:34;10.20;;;4.25;;
45316;SDS011;31053;55.870;37.592;2023-09-19T01:31:13;5.63;;;3.70;;
45316;SDS011;31053;55.870;37.592;2023-09-19T01:34:19;5.57;;;3.80;;
45316;SDS011;31053;55.870;37.592;2023-09-19T01:37:28;10.82;;;5.20;;
45316;SDS011;31053;55.870;37.592;2023-09-19T01:40:33;5.53;;;4.05;;
45316;SDS011;31053;55.870;37.592;2023-09-19T01:43:42;6.25;;;4.43;;
45316;SDS011;31053;55.870;37.592;2023-09-19T01:53:24;7.25;;;4.65;;
45316;SDS011;31053;55.870;37.592;2023-09-19T01:56:47;8.18;;;4.10;;
45316;SDS011;31053;55.870;37.592;2023-09-19T02:04:39;6.68;;;4.00;;
45316;SDS011;31053;55.870;37.592;2023-09-19T02:07:44;8.45;;;5.43;;
45316;SDS011;31053;55.870;37.592;2023-09-19T02:10:49;9.35;;;5.00;;
45316;SDS011;31053;55.870;37.592;2023-09-19T02:13:54;9.75;;;5.20;;
45316;SDS011;31053;55.870;37.592;2023-09-19T02:16:59;11.85;;;4.82;;
45316;SDS011;31053;55.870;37.592;2023-09-19T02:20:04;6.85;;;4.15;;
45316;SDS011;31053;55.870;37.592;2023-09-19T02:23:14;7.53;;;4.63;;
45316;SDS011;31053;55.870;37.592;2023-09-19T02:26:19;6.93;;;4.40;;
45316;SDS011;31053;55.870;37.592;2023-09-19T02:29:33;9.17;;;5.40;;
45316;SDS011;31053;55.870;37.592;2023-09-19T02:32:44;7.38;;;4.40;;
45316;SDS011;31053;55.870;37.592;2023-09-19T02:35:49;6.55;;;4.20;;
45316;SDS011;31053;55.870;37.592;2023-09-19T02:38:54;10.07;;;5.45;;
45316;SDS011;31053;55.870;37.592;2023-09-19T02:41:59;12.38;;;4.88;;
45316;SDS011;31053;55.870;37.592;2023-09-19T02:45:05;8.77;;;4.60;;
45316;SDS011;31053;55.870;37.592;2023-09-19T02:48:10;10.00;;;5.25;;
45316;SDS011;31053;55.870;37.592;2023-09-19T02:51:15;8.82;;;5.03;;
45316;SDS011;31053;55.870;37.592;2023-09-19T02:54:23;13.73;;;6.15;;
45316;SDS011;31053;55.870;37.592;2023-09-19T02:57:31;7.22;;;4.28;;
45316;SDS011;31053;55.870;37.592;2023-09-19T03:00:37;12.70;;;5.65;;
45316;SDS011;31053;55.870;37.592;2023-09-19T03:03:43;8.52;;;4.50;;
45316;SDS011;31053;55.870;37.592;2023-09-19T03:06:48;5.43;;;3.80;;
45316;SDS011;31053;55.870;37.592;2023-09-19T03:09:55;8.60;;;4.45;;
45316;SDS011;31053;55.870;37.592;2023-09-19T03:13:00;8.77;;;5.72;;
45316;SDS011;31053;55.870;37.592;2023-09-19T03:16:05;8.82;;;5.60;;
45316;SDS011;31053;55.870;37.592;2023-09-19T03:23:56;8.60;;;4.80;;
45316;SDS011;31053;55.870;37.592;2023-09-19T03:27:00;5.55;;;4.35;;
45316;SDS011;31053;55.870;37.592;2023-09-19T03:30:05;8.93;;;5.43;;
45316;SDS011;31053;55.870;37.592;2023-09-19T03:33:12;9.77;;;5.35;;
45316;SDS011;31053;55.870;37.592;2023-09-19T03:36:18;7.32;;;4.80;;
45316;SDS011;31053;55.870;37.592;2023-09-19T03:39:23;11.68;;;7.10;;
45316;SDS011;31053;55.870;37.592;2023-09-19T03:42:28;9.65;;;5.82;;
45316;SDS011;31053;55.870;37.592;2023-09-19T03:45:33;10.40;;;6.25;;
45316;SDS011;31053;55.870;37.592;2023-09-19T03:48:38;10.25;;;5.88;;
45316;SDS011;31053;55.870;37.592;2023-09-19T03:51:43;9.55;;;5.65;;
45316;SDS011;31053;55.870;37.592;2023-09-19T03:54:48;14.93;;;4.97;;
45316;SDS011;31053;55.870;37.592;2023-09-19T03:57:53;10.25;;;5.15;;
45316;SDS011;31053;55.870;37.592;2023-09-19T04:00:58;11.63;;;6.55;;
45316;SDS011;31053;55.870;37.592;2023-09-19T04:04:06;8.27;;;5.13;;
45316;SDS011;31053;55.870;37.592;2023-09-19T04:07:14;8.52;;;5.07;;
45316;SDS011;31053;55.870;37.592;2023-09-19T04:10:19;7.07;;;4.38;;
45316;SDS011;31053;55.870;37.592;2023-09-19T04:13:25;5.72;;;3.88;;
45316;SDS011;31053;55.870;37.592;2023-09-19T04:16:31;5.38;;;3.20;;
45316;SDS011;31053;55.870;37.592;2023-09-19T04:19:36;12.13;;;5.55;;
45316;SDS011;31053;55.870;37.592;2023-09-19T04:22:42;7.20;;;4.28;;
45316;SDS011;31053;55.870;37.592;2023-09-19T04:25:47;6.65;;;4.30;;
45316;SDS011;31053;55.870;37.592;2023-09-19T04:28:53;7.53;;;4.63;;
45316;SDS011;31053;55.870;37.592;2023-09-19T04:31:58;5.03;;;3.40;;
45316;SDS011;31053;55.870;37.592;2023-09-19T04:35:03;9.10;;;4.35;;
45316;SDS011;31053;55.870;37.592;2023-09-19T04:38:10;7.00;;;4.32;;
45316;SDS011;31053;55.870;37.592;2023-09-19T04:41:16;8.82;;;3.85;;
45316;SDS011;31053;55.870;37.592;2023-09-19T04:44:21;6.55;;;3.92;;
45316;SDS011;31053;55.870;37.592;2023-09-19T04:47:26;5.70;;;3.50;;
45316;SDS011;31053;55.870;37.592;2023-09-19T04:50:31;7.15;;;4.20;;
45316;SDS011;31053;55.870;37.592;2023-09-19T04:56:42;6.50;;;4.18;;
45316;SDS011;31053;55.870;37.592;2023-09-19T04:59:47;10.80;;;4.85;;
45316;SDS011;31053;55.870;37.592;2023-09-19T05:02:52;8.43;;;4.57;;
45316;SDS011;31053;55.870;37.592;2023-09-19T05:06:06;10.00;;;4.88;;
45316;SDS011;31053;55.870;37.592;2023-09-19T05:09:11;11.05;;;5.82;;
45316;SDS011;31053;55.870;37.592;2023-09-19T05:12:16;9.15;;;4.95;;
45316;SDS011;31053;55.870;37.592;2023-09-19T05:15:24;9.52;;;4.40;;
45316;SDS011;31053;55.870;37.592;2023-09-19T05:18:30;13.05;;;5.80;;
45316;SDS011;31053;55.870;37.592;2023-09-19T05:21:36;7.67;;;5.43;;
45316;SDS011;31053;55.870;37.592;2023-09-19T05:24:44;7.07;;;4.03;;
45316;SDS011;31053;55.870;37.592;2023-09-19T05:27:53;12.20;;;6.35;;
45316;SDS011;31053;55.870;37.592;2023-09-19T05:31:00;9.90;;;5.00;;
45316;SDS011;31053;55.870;37.592;2023-09-19T05:34:11;7.35;;;4.72;;
45316;SDS011;31053;55.870;37.592;2023-09-19T05:37:20;10.77;;;5.97;;
45316;SDS011;31053;55.870;37.592;2023-09-19T05:40:28;15.25;;;6.65;;
45316;SDS011;31053;55.870;37.592;2023-09-19T05:43:33;14.75;;;7.53;;
45316;SDS011;31053;55.870;37.592;2023-09-19T05:46:51;13.63;;;7.22;;
45316;SDS011;31053;55.870;37.592;2023-09-19T05:49:56;11.18;;;6.63;;
45316;SDS011;31053;55.870;37.592;2023-09-19T05:53:01;11.35;;;6.28;;
45316;SDS011;31053;55.870;37.592;2023-09-19T05:56:06;9.60;;;5.80;;
45316;SDS011;31053;55.870;37.592;2023-09-19T05:59:21;13.95;;;7.93;;
45316;SDS011;31053;55.870;37.592;2023-09-19T06:02:26;18.10;;;9.40;;
45316;SDS011;31053;55.870;37.592;2023-09-19T06:05:33;10.68;;;7.38;;
45316;SDS011;31053;55.870;37.592;2023-09-19T06:08:37;12.98;;;7.82;;
45316;SDS011;31053;55.870;37.592;2023-09-19T06:11:42;11.93;;;7.85;;
45316;SDS011;31053;55.870;37.592;2023-09-19T06:14:48;20.35;;;8.57;;
45316;SDS011;31053;55.870;37.592;2023-09-19T06:17:54;14.10;;;7.85;;
45316;SDS011;31053;55.870;37.592;2023-09-19T06:21:00;26.75;;;11.55;;
45316;SDS011;31053;55.870;37.592;2023-09-19T06:24:09;22.23;;;10.45;;
45316;SDS011;31053;55.870;37.592;2023-09-19T06:27:16;21.63;;;9.88;;
45316;SDS011;31053;55.870;37.592;2023-09-19T06:30:21;16.15;;;7.85;;
45316;SDS011;31053;55.870;37.592;2023-09-19T06:33:28;16.45;;;7.72;;
45316;SDS011;31053;55.870;37.592;2023-09-19T06:36:36;18.38;;;9.15;;
45316;SDS011;31053;55.870;37.592;2023-09-19T06:39:46;14.52;;;9.55;;
45316;SDS011;31053;55.870;37.592;2023-09-19T06:42:54;16.98;;;8.95;;
45316;SDS011;31053;55.870;37.592;2023-09-19T06:46:03;17.92;;;9.45;;
45316;SDS011;31053;55.870;37.592;2023-09-19T06:49:08;15.68;;;9.48;;
45316;SDS011;31053;55.870;37.592;2023-09-19T06:52:21;11.23;;;7.65;;
45316;SDS011;31053;55.870;37.592;2023-09-19T06:55:27;18.45;;;9.48;;
45316;SDS011;31053;55.870;37.592;2023-09-19T06:58:32;17.05;;;9.63;;
45316;SDS011;31053;55.870;37.592;2023-09-19T07:01:37;16.88;;;8.52;;
45316;SDS011;31053;55.870;37.592;2023-09-19T07:04:44;21.25;;;8.18;;
45316;SDS011;31053;55.870;37.592;2023-09-19T07:07:50;13.88;;;9.18;;
45316;SDS011;31053;55.870;37.592;2023-09-19T07:11:02;19.98;;;8.27;;
45316;SDS011;31053;55.870;37.592;2023-09-19T07:14:21;10.70;;;7.38;;
45316;SDS011;31053;55.870;37.592;2023-09-19T07:17:25;16.38;;;8.27;;
45316;SDS011;31053;55.870;37.592;2023-09-19T07:20:33;20.98;;;9.60;;
45316;SDS011;31053;55.870;37.592;2023-09-19T07:23:39;16.17;;;10.90;;
45316;SDS011;31053;55.870;37.592;2023-09-19T07:26:45;14.05;;;8.25;;
45316;SDS011;31053;55.870;37.592;2023-09-19T07:29:50;16.50;;;7.72;;
45316;SDS011;31053;55.870;37.592;2023-09-19T07:32:59;17.58;;;9.20;;
45316;SDS011;31053;55.870;37.592;2023-09-19T07:36:09;20.13;;;10.98;;
45316;SDS011;31053;55.870;37.592;2023-09-19T07:39:14;21.60;;;10.55;;
45316;SDS011;31053;55.870;37.592;2023-09-19T07:42:19;19.25;;;10.50;;
45316;SDS011;31053;55.870;37.592;2023-09-19T07:45:24;21.23;;;9.55;;
45316;SDS011;31053;55.870;37.592;2023-09-19T07:48:29;15.45;;;7.55;;
45316;SDS011;31053;55.870;37.592;2023-09-19T07:51:43;12.98;;;8.65;;
45316;SDS011;31053;55.870;37.592;2023-09-19T07:54:57;31.52;;;11.00;;
45316;SDS011;31053;55.870;37.592;2023-09-19T07:58:02;21.05;;;11.52;;
45316;SDS011;31053;55.870;37.592;2023-09-19T08:01:10;16.92;;;11.00;;
45316;SDS011;31053;55.870;37.592;2023-09-19T08:04:17;17.95;;;10.38;;
45316;SDS011;31053;55.870;37.592;2023-09-19T08:07:26;19.75;;;10.10;;
45316;SDS011;31053;55.870;37.592;2023-09-19T08:13:39;26.35;;;12.85;;
45316;SDS011;31053;55.870;37.592;2023-09-19T08:16:56;18.48;;;10.05;;
45316;SDS011;31053;55.870;37.592;2023-09-19T08:20:08;13.77;;;7.70;;
45316;SDS011;31053;55.870;37.592;2023-09-19T08:23:26;12.80;;;7.55;;
45316;SDS011;31053;55.870;37.592;2023-09-19T08:26:31;28.10;;;11.43;;
45316;SDS011;31053;55.870;37.592;2023-09-19T08:29:37;20.40;;;12.25;;
45316;SDS011;31053;55.870;37.592;2023-09-19T08:32:43;17.27;;;10.38;;
45316;SDS011;31053;55.870;37.592;2023-09-19T08:35:48;21.00;;;10.68;;
45316;SDS011;31053;55.870;37.592;2023-09-19T08:38:53;23.40;;;13.80;;
45316;SDS011;31053;55.870;37.592;2023-09-19T08:41:59;22.08;;;10.15;;
45316;SDS011;31053;55.870;37.592;2023-09-19T08:45:07;25.08;;;10.85;;
45316;SDS011;31053;55.870;37.592;2023-09-19T08:48:28;25.63;;;15.30;;
45316;SDS011;31053;55.870;37.592;2023-09-19T08:51:45;26.88;;;10.48;;
45316;SDS011;31053;55.870;37.592;2023-09-19T08:54:51;31.03;;;12.90;;
45316;SDS011;31053;55.870;37.592;2023-09-19T09:01:04;11.90;;;7.40;;
45316;SDS011;31053;55.870;37.592;2023-09-19T09:04:11;19.55;;;10.05;;
45316;SDS011;31053;55.870;37.592;2023-09-19T09:07:19;22.92;;;10.50;;
45316;SDS011;31053;55.870;37.592;2023-09-19T09:10:25;21.70;;;10.18;;
45316;SDS011;31053;55.870;37.592;2023-09-19T09:13:31;22.00;;;13.55;;
45316;SDS011;31053;55.870;37.592;2023-09-19T09:16:45;17.98;;;9.45;;
45316;SDS011;31053;55.870;37.592;2023-09-19T09:20:14;19.67;;;9.25;;
45316;SDS011;31053;55.870;37.592;2023-09-19T09:23:19;22.08;;;10.27;;
45316;SDS011;31053;55.870;37.592;2023-09-19T09:26:46;26.80;;;10.18;;
45316;SDS011;31053;55.870;37.592;2023-09-19T09:29:52;19.27;;;11.40;;
45316;SDS011;31053;55.870;37.592;2023-09-19T09:33:12;24.10;;;12.23;;
45316;SDS011;31053;55.870;37.592;2023-09-19T09:36:18;26.55;;;12.02;;
45316;SDS011;31053;55.870;37.592;2023-09-19T09:39:38;22.60;;;9.95;;
45316;SDS011;31053;55.870;37.592;2023-09-19T09:42:43;18.88;;;11.02;;
45316;SDS011;31053;55.870;37.592;2023-09-19T09:46:04;20.70;;;9.93;;
45316;SDS011;31053;55.870;37.592;2023-09-19T09:49:34;25.65;;;10.20;;
45316;SDS011;31053;55.870;37.592;2023-09-19T09:52:45;19.40;;;8.50;;
45316;SDS011;31053;55.870;37.592;2023-09-19T09:56:04;19.25;;;10.05;;
45316;SDS011;31053;55.870;37.592;2023-09-19T09:59:14;19.45;;;9.57;;
45316;SDS011;31053;55.870;37.592;2023-09-19T10:02:28;13.35;;;8.80;;
45316;SDS011;31053;55.870;37.592;2023-09-19T10:05:43;17.55;;;11.05;;
45316;SDS011;31053;55.870;37.592;2023-09-19T10:08:59;14.63;;;7.78;;
45316;SDS011;31053;55.870;37.592;2023-09-19T10:12:15;60.30;;;18.67;;
45316;SDS011;31053;55.870;37.592;2023-09-19T10:15:24;25.42;;;10.82;;
45316;SDS011;31053;55.870;37.592;2023-09-19T10:18:31;15.15;;;8.25;;
45316;SDS011;31053;55.870;37.592;2023-09-19T10:21:40;14.82;;;7.93;;
45316;SDS011;31053;55.870;37.592;2023-09-19T10:24:49;11.30;;;5.72;;
45316;SDS011;31053;55.870;37.592;2023-09-19T10:27:57;19.95;;;8.05;;
45316;SDS011;31053;55.870;37.592;2023-09-19T10:31:08;17.00;;;8.60;;
45316;SDS011;31053;55.870;37.592;2023-09-19T10:34:14;9.80;;;4.32;;
45316;SDS011;31053;55.870;37.592;2023-09-19T10:37:24;13.55;;;6.55;;
45316;SDS011;31053;55.870;37.592;2023-09-19T10:40:32;16.30;;;7.53;;
45316;SDS011;31053;55.870;37.592;2023-09-19T10:46:42;15.20;;;7.80;;
45316;SDS011;31053;55.870;37.592;2023-09-19T10:49:47;16.98;;;8.02;;
45316;SDS011;31053;55.870;37.592;2023-09-19T10:52:53;24.23;;;7.72;;
45316;SDS011;31053;55.870;37.592;2023-09-19T10:56:08;18.55;;;9.63;;
45316;SDS011;31053;55.870;37.592;2023-09-19T10:59:21;8.98;;;5.70;;
45316;SDS011;31053;55.870;37.592;2023-09-19T11:02:30;15.68;;;7.07;;
45316;SDS011;31053;55.870;37.592;2023-09-19T11:05:34;9.65;;;5.20;;
45316;SDS011;31053;55.870;37.592;2023-09-19T11:08:58;17.52;;;5.80;;
45316;SDS011;31053;55.870;37.592;2023-09-19T11:13:02;14.52;;;6.68;;
45316;SDS011;31053;55.870;37.592;2023-09-19T11:19:04;11.15;;;5.93;;
45316;SDS011;31053;55.870;37.592;2023-09-19T11:22:11;13.18;;;5.70;;
45316;SDS011;31053;55.870;37.592;2023-09-19T11:29:29;13.35;;;7.80;;
45316;SDS011;31053;55.870;37.592;2023-09-19T11:33:30;14.35;;;6.07;;
45316;SDS011;31053;55.870;37.592;2023-09-19T11:36:40;27.30;;;7.47;;
45316;SDS011;31053;55.870;37.592;2023-09-19T11:40:32;7.88;;;5.78;;
45316;SDS011;31053;55.870;37.592;2023-09-19T11:43:40;13.00;;;6.93;;
45316;SDS011;31053;55.870;37.592;2023-09-19T11:49:57;7.75;;;4.88;;
45316;SDS011;31053;55.870;37.592;2023-09-19T11:53:05;19.05;;;9.55;;
45316;SDS011;31053;55.870;37.592;2023-09-19T11:59:21;9.88;;;5.90;;
45316;SDS011;31053;55.870;37.592;2023-09-19T12:02:38;11.95;;;5.93;;
45316;SDS011;31053;55.870;37.592;2023-09-19T12:05:45;9.30;;;4.75;;
45316;SDS011;31053;55.870;37.592;2023-09-19T12:08:58;16.25;;;8.05;;
45316;SDS011;31053;55.870;37.592;2023-09-19T12:12:05;13.27;;;5.88;;
45316;SDS011;31053;55.870;37.592;2023-09-19T12:15:24;11.00;;;5.90;;
45316;SDS011;31053;55.870;37.592;2023-09-19T12:18:42;15.98;;;7.03;;
45316;SDS011;31053;55.870;37.592;2023-09-19T12:26:43;10.82;;;6.55;;
45316;SDS011;31053;55.870;37.592;2023-09-19T12:29:51;21.35;;;7.28;;
45316;SDS011;31053;55.870;37.592;2023-09-19T12:33:03;20.52;;;6.95;;
45316;SDS011;31053;55.870;37.592;2023-09-19T12:48:27;26.15;;;12.88;;
45316;SDS011;31053;55.870;37.592;2023-09-19T12:51:36;18.25;;;8.30;;
45316;SDS011;31053;55.870;37.592;2023-09-19T12:59:40;16.33;;;9.27;;
45316;SDS011;31053;55.870;37.592;2023-09-19T13:03:25;10.40;;;5.53;;
45316;SDS011;31053;55.870;37.592;2023-09-19T13:06:35;16.23;;;7.47;;
45316;SDS011;31053;55.870;37.592;2023-09-19T13:10:02;15.10;;;6.05;;
45316;SDS011;31053;55.870;37.592;2023-09-19T13:13:24;11.80;;;7.97;;
45316;SDS011;31053;55.870;37.592;2023-09-19T13:16:33;12.63;;;7.70;;
45316;SDS011;31053;55.870;37.592;2023-09-19T13:22:59;13.90;;;7.28;;
45316;SDS011;31053;55.870;37.592;2023-09-19T13:26:05;14.15;;;6.60;;
45316;SDS011;31053;55.870;37.592;2023-09-19T13:29:12;26.83;;;8.00;;
45316;SDS011;31053;55.870;37.592;2023-09-19T13:32:22;16.20;;;6.95;;
45316;SDS011;31053;55.870;37.592;2023-09-19T13:35:29;15.32;;;7.63;;
45316;SDS011;31053;55.870;37.592;2023-09-19T13:38:34;12.63;;;6.97;;
45316;SDS011;31053;55.870;37.592;2023-09-19T13:41:39;13.90;;;6.20;;
45316;SDS011;31053;55.870;37.592;2023-09-19T13:44:43;14.88;;;9.63;;
45316;SDS011;31053;55.870;37.592;2023-09-19T13:47:48;11.43;;;6.80;;
45316;SDS011;31053;55.870;37.592;2023-09-19T13:50:54;25.35;;;7.55;;
45316;SDS011;31053;55.870;37.592;2023-09-19T13:53:59;19.58;;;7.18;;
45316;SDS011;31053;55.870;37.592;2023-09-19T13:57:04;21.67;;;9.30;;
45316;SDS011;31053;55.870;37.592;2023-09-19T14:00:09;12.07;;;7.05;;
45316;SDS011;31053;55.870;37.592;2023-09-19T14:03:17;19.08;;;7.45;;
45316;SDS011;31053;55.870;37.592;2023-09-19T14:06:24;13.68;;;7.43;;
45316;SDS011;31053;55.870;37.592;2023-09-19T14:09:33;29.63;;;8.98;;
45316;SDS011;31053;55.870;37.592;2023-09-19T14:12:39;22.20;;;9.65;;
45316;SDS011;31053;55.870;37.592;2023-09-19T14:15:48;30.65;;;9.60;;
45316;SDS011;31053;55.870;37.592;2023-09-19T14:19:03;17.83;;;8.65;;
45316;SDS011;31053;55.870;37.592;2023-09-19T14:22:09;19.30;;;9.35;;
45316;SDS011;31053;55.870;37.592;2023-09-19T14:25:18;19.90;;;9.52;;
45316;SDS011;31053;55.870;37.592;2023-09-19T14:28:23;21.48;;;12.10;;
45316;SDS011;31053;55.870;37.592;2023-09-19T14:31:29;19.25;;;8.73;;
45316;SDS011;31053;55.870;37.592;2023-09-19T14:34:34;19.20;;;9.05;;
45316;SDS011;31053;55.870;37.592;2023-09-19T14:37:46;19.42;;;9.93;;
45316;SDS011;31053;55.870;37.592;2023-09-19T14:50:02;20.30;;;8.57;;
45316;SDS011;31053;55.870;37.592;2023-09-19T14:53:13;27.70;;;10.20;;
45316;SDS011;31053;55.870;37.592;2023-09-19T14:56:18;23.08;;;9.30;;
45316;SDS011;31053;55.870;37.592;2023-09-19T14:59:33;19.90;;;7.40;;
45316;SDS011;31053;55.870;37.592;2023-09-19T15:02:42;13.23;;;7.68;;
45316;SDS011;31053;55.870;37.592;2023-09-19T15:05:50;15.95;;;7.95;;
45316;SDS011;31053;55.870;37.592;2023-09-19T15:08:56;12.40;;;6.20;;
45316;SDS011;31053;55.870;37.592;2023-09-19T15:12:02;13.52;;;7.80;;
45316;SDS011;31053;55.870;37.592;2023-09-19T15:15:07;32.33;;;8.25;;
45316;SDS011;31053;55.870;37.592;2023-09-19T15:18:12;30.73;;;18.98;;
45316;SDS011;31053;55.870;37.592;2023-09-19T15:21:17;18.30;;;10.05;;
45316;SDS011;31053;55.870;37.592;2023-09-19T15:24:22;11.85;;;7.60;;
45316;SDS011;31053;55.870;37.592;2023-09-19T15:27:28;42.40;;;27.88;;
45316;SDS011;31053;55.870;37.592;2023-09-19T15:30:37;26.77;;;16.65;;
45316;SDS011;31053;55.870;37.592;2023-09-19T15:33:42;26.58;;;13.18;;
45316;SDS011;31053;55.870;37.592;2023-09-19T15:36:47;19.48;;;9.43;;
45316;SDS011;31053;55.870;37.592;2023-09-19T15:39:52;17.10;;;9.50;;
45316;SDS011;31053;55.870;37.592;2023-09-19T15:42:56;18.88;;;9.77;;
45316;SDS011;31053;55.870;37.592;2023-09-19T15:46:01;16.88;;;9.27;;
45316;SDS011;31053;55.870;37.592;2023-09-19T15:49:07;16.10;;;8.40;;
45316;SDS011;31053;55.870;37.592;2023-09-19T15:52:12;17.02;;;9.55;;
45316;SDS011;31053;55.870;37.592;2023-09-19T15:55:17;20.20;;;8.40;;
45316;SDS011;31053;55.870;37.592;2023-09-19T15:58:21;21.17;;;11.63;;
45316;SDS011;31053;55.870;37.592;2023-09-19T16:01:26;42.83;;;21.23;;
45316;SDS011;31053;55.870;37.592;2023-09-19T16:04:31;27.83;;;13.63;;
45316;SDS011;31053;55.870;37.592;2023-09-19T16:07:36;30.25;;;16.35;;
45316;SDS011;31053;55.870;37.592;2023-09-19T16:10:42;41.60;;;24.50;;
45316;SDS011;31053;55.870;37.592;2023-09-19T16:13:48;43.03;;;22.27;;
45316;SDS011;31053;55.870;37.592;2023-09-19T16:16:54;44.22;;;23.95;;
45316;SDS011;31053;55.870;37.592;2023-09-19T16:19:58;38.28;;;16.38;;
45316;SDS011;31053;55.870;37.592;2023-09-19T16:23:03;27.50;;;14.02;;
45316;SDS011;31053;55.870;37.592;2023-09-19T16:26:08;25.95;;;10.38;;
45316;SDS011;31053;55.870;37.592;2023-09-19T16:29:13;20.23;;;12.00;;
45316;SDS011;31053;55.870;37.592;2023-09-19T16:32:18;29.98;;;13.07;;
45316;SDS011;31053;55.870;37.592;2023-09-19T16:35:24;23.40;;;12.00;;
45316;SDS011;31053;55.870;37.592;2023-09-19T16:38:28;26.98;;;14.13;;
45316;SDS011;31053;55.870;37.592;2023-09-19T16:41:33;27.77;;;10.60;;
45316;SDS011;31053;55.870;37.592;2023-09-19T16:44:39;18.63;;;12.65;;
45316;SDS011;31053;55.870;37.592;2023-09-19T16:47:44;24.30;;;14.45;;
45316;SDS011;31053;55.870;37.592;2023-09-19T16:50:49;26.05;;;12.18;;
45316;SDS011;31053;55.870;37.592;2023-09-19T16:53:55;36.20;;;12.48;;
45316;SDS011;31053;55.870;37.592;2023-09-19T16:57:00;26.08;;;12.32;;
45316;SDS011;31053;55.870;37.592;2023-09-19T17:00:13;33.85;;;15.68;;
45316;SDS011;31053;55.870;37.592;2023-09-19T17:03:24;28.83;;;15.07;;
45316;SDS011;31053;55.870;37.592;2023-09-19T17:06:29;20.23;;;12.00;;
45316;SDS011;31053;55.870;37.592;2023-09-19T17:09:34;28.98;;;13.70;;
45316;SDS011;31053;55.870;37.592;2023-09-19T17:12:40;37.25;;;18.67;;
45316;SDS011;31053;55.870;37.592;2023-09-19T17:15:44;27.38;;;17.40;;
45316;SDS011;31053;55.870;37.592;2023-09-19T17:18:50;29.67;;;13.50;;
45316;SDS011;31053;55.870;37.592;2023-09-19T17:21:59;29.75;;;16.08;;
45316;SDS011;31053;55.870;37.592;2023-09-19T17:25:04;26.55;;;14.68;;
45316;SDS011;31053;55.870;37.592;2023-09-19T17:28:11;27.58;;;13.07;;
45316;SDS011;31053;55.870;37.592;2023-09-19T17:31:17;31.38;;;13.73;;
45316;SDS011;31053;55.870;37.592;2023-09-19T17:34:23;27.40;;;14.75;;
45316;SDS011;31053;55.870;37.592;2023-09-19T17:37:28;28.23;;;13.95;;
45316;SDS011;31053;55.870;37.592;2023-09-19T17:40:42;29.02;;;12.40;;
45316;SDS011;31053;55.870;37.592;2023-09-19T17:43:54;33.15;;;12.70;;
45316;SDS011;31053;55.870;37.592;2023-09-19T17:46:59;29.98;;;15.25;;
45316;SDS011;31053;55.870;37.592;2023-09-19T17:50:05;24.77;;;14.98;;
45316;SDS011;31053;55.870;37.592;2023-09-19T17:53:11;39.95;;;14.90;;
45316;SDS011;31053;55.870;37.592;2023-09-19T17:56:17;29.88;;;14.73;;
45316;SDS011;31053;55.870;37.592;2023-09-19T17:59:22;34.85;;;14.90;;
45316;SDS011;31053;55.870;37.592;2023-09-19T18:02:28;27.88;;;15.38;;
45316;SDS011;31053;55.870;37.592;2023-09-19T18:05:39;28.92;;;16.65;;
45316;SDS011;31053;55.870;37.592;2023-09-19T18:08:47;36.38;;;13.90;;
45316;SDS011;31053;55.870;37.592;2023-09-19T18:11:52;23.55;;;13.02;;
45316;SDS011;31053;55.870;37.592;2023-09-19T18:14:58;28.95;;;18.17;;
45316;SDS011;31053;55.870;37.592;2023-09-19T18:18:08;23.25;;;12.65;;
45316;SDS011;31053;55.870;37.592;2023-09-19T18:21:14;33.75;;;14.77;;
45316;SDS011;31053;55.870;37.592;2023-09-19T18:24:20;33.97;;;12.68;;
45316;SDS011;31053;55.870;37.592;2023-09-19T18:27:38;32.78;;;16.58;;
45316;SDS011;31053;55.870;37.592;2023-09-19T18:30:45;22.67;;;14.25;;
45316;SDS011;31053;55.870;37.592;2023-09-19T18:33:51;28.85;;;16.23;;
45316;SDS011;31053;55.870;37.592;2023-09-19T18:36:57;30.92;;;15.80;;
45316;SDS011;31053;55.870;37.592;2023-09-19T18:40:03;21.23;;;11.93;;
45316;SDS011;31053;55.870;37.592;2023-09-19T18:43:08;23.20;;;12.80;;
45316;SDS011;31053;55.870;37.592;2023-09-19T18:46:13;30.73;;;14.13;;
45316;SDS011;31053;55.870;37.592;2023-09-19T18:49:21;28.70;;;14.45;;
45316;SDS011;31053;55.870;37.592;2023-09-19T18:52:30;38.95;;;23.45;;
45316;SDS011;31053;55.870;37.592;2023-09-19T18:55:54;27.88;;;15.95;;
45316;SDS011;31053;55.870;37.592;2023-09-19T18:59:07;27.08;;;12.43;;
45316;SDS011;31053;55.870;37.592;2023-09-19T19:02:12;26.95;;;14.75;;
45316;SDS011;31053;55.870;37.592;2023-09-19T19:05:32;33.45;;;13.88;;
45316;SDS011;31053;55.870;37.592;2023-09-19T19:11:43;28.90;;;12.88;;
45316;SDS011;31053;55.870;37.592;2023-09-19T19:15:06;37.50;;;16.27;;
45316;SDS011;31053;55.870;37.592;2023-09-19T19:18:12;27.88;;;15.57;;
45316;SDS011;31053;55.870;37.592;2023-09-19T19:21:21;34.72;;;12.75;;
45316;SDS011;31053;55.870;37.592;2023-09-19T19:24:26;21.17;;;10.77;;
45316;SDS011;31053;55.870;37.592;2023-09-19T19:27:31;21.88;;;11.60;;
45316;SDS011;31053;55.870;37.592;2023-09-19T19:30:42;25.35;;;13.13;;
45316;SDS011;31053;55.870;37.592;2023-09-19T19:34:22;25.77;;;12.15;;
45316;SDS011;31053;55.870;37.592;2023-09-19T19:37:29;26.02;;;13.85;;
45316;SDS011;31053;55.870;37.592;2023-09-19T19:40:38;28.02;;;14.13;;
45316;SDS011;31053;55.870;37.592;2023-09-19T19:44:00;27.48;;;13.38;;
45316;SDS011;31053;55.870;37.592;2023-09-19T19:47:37;20.40;;;12.48;;
45316;SDS011;31053;55.870;37.592;2023-09-19T20:06:21;22.63;;;11.18;;
45316;SDS011;31053;55.870;37.592;2023-09-19T20:11:25;36.35;;;12.57;;
45316;SDS011;31053;55.870;37.592;2023-09-19T20:15:42;26.83;;;10.13;;